Laredo International, TX

1:57 AM CDT en Octubre 26, 2014 (GMT -0500)
Zapata | Change Station
CLOSE
Current Station
Aeropuerto
Location: Zapata,
Altura: 423 ft
Estaciones meteorológicas cercanas

Alt 423 ft 26.97 °N, 99.25 °W | Updated 9 hours ago

Despejado
Despejado
69 ° F
Sensación térmica 69 ° F
N
8
Viento Variable Viento desde SSE
Gusts 10 mph

Hoy
Alta -- | Baja -- ° F
--% Posibilidad de precipitaciones
Ayer
Alta -- | Baja -- ° F
Precip. -- pul
7:44 AM 6:58 PM
Creciente, 6% visible
Presión 30.05 pul
Visibilidad 10.0 Millas
Nubes Despejado
Punto de rocío 64 ° F
Humedad 83%
Precipitaciones 0.00 pul
Espesor de la nieve No disponible.
UV 2 de una escala de 12
Polen 6.40 de una escala de 12
PM2.5 Buena
Flu Activity Local Activity
METAR KAPY 252155Z AUTO 16008KT 10SM CLR 32/11 A3005 RMK AO2 T03210111

More Conditions Fewer Conditions

Presión 30.05 pul
Visibilidad 10.0 Millas
Nubes Despejado
Punto de rocío 64 ° F
Humedad 83%
Precipitaciones 0.00 pul
Espesor de la nieve No disponible.
UV 2 de una escala de 12
Polen 6.40 de una escala de 12
PM2.5 Buena
Flu Activity Local Activity
METAR KAPY 252155Z AUTO 16008KT 10SM CLR 32/11 A3005 RMK AO2 T03210111

More Conditions Fewer Conditions

10-Day Weather Forecast

Almanac

Astronomía

Oct. 26, 2014 Salida Puesta
Hora real 7:44 AM CDT 6:58 PM CDT
Crepúsculo civil 7:20 AM CDT 7:22 PM CDT
Crepúsculo náutico 6:53 AM CDT 7:49 PM CDT
Crepúsculo astronómico 6:25 AM CDT 8:17 PM CDT
Luna 10:15 AM CDT 9:21 PM CDT
Horas de luz 12h 01m
Horas de luz
11h 14m
Tomorrow will be 1m 29s shorter.
Creciente, 6% of the Moon is Illuminated
Hoy
Creciente
Oct 30
Cuarto creciente
Nov 6
Luna llena
Nov 14
Cuarto menguante
Nov 22
Nueva

Extremos de hoy

Máximos del estado Bajos del estado

Community

WunderPhotos

Upload Photos

1,765,117 ¡fotos cargadas!

Nearby

Calidad del aire

  Calidad del aire Índice AQ Contaminante
Ayer Buena
PM2.5
Real Buena
PM2.5
Domingo Buena
PM10
Domingo Buena
OZONE
Lunes Buena
PM10
Lunes Buena
OZONE
Martes Buena
PM10
Martes Buena
OZONE

Grosos de nieve

Estación Profundido Altura
No tenemos constancia de nieve nueva.

Actividad de terremotos

Ciudad Distance Mag. Tiempo y dato
No hay informes recientes de la actividad sísmica.
Magnitud mínima muestra es 2,5.

Temperaturas de aguas costeras

Lugar Temperatura
Sin partes meteorológicos de las estaciones

Estaciones meteorológicas cercanas